CDT,Max TemperatureF,Mean TemperatureF,Min TemperatureF,Max Dew PointF,MeanDew PointF,Min DewpointF,Max Humidity, Mean Humidity, Min Humidity, Max Sea Level PressureIn, Mean Sea Level PressureIn, Min Sea Level PressureIn, Max VisibilityMiles, Mean VisibilityMiles, Min VisibilityMiles, Max Wind SpeedMPH, Mean Wind SpeedMPH, Max Gust SpeedMPH,PrecipitationIn, CloudCover, Events, WindDirDegrees
2013-3-1,29,26,24,28,26,24,100,96,88,30.37,30.29,30.22,10,10,4,13,9,21,0.00,8,Snow,338
2013-3-2,34,27,20,30,25,20,100,90,72,30.35,30.25,30.10,10,10,7,9,3,,0.00,4,,147
2013-3-3,39,32,26,36,31,27,100,93,82,30.09,29.89,29.72,10,9,7,16,8,25,0.00,3,,127
2013-3-4,42,36,31,36,33,30,100,91,76,30.03,29.79,29.66,10,10,7,14,8,23,0.00,4,Snow,38
2013-3-5,33,29,24,28,24,22,95,84,75,30.39,30.19,30.02,10,10,10,29,16,43,0.00,7,,316
2013-3-6,38,30,21,28,25,21,97,84,64,30.44,30.35,30.25,10,10,10,14,7,20,0.00,3,,104
2013-3-7,50,37,24,39,29,22,98,80,55,30.28,30.19,30.09,10,10,10,18,9,23,0.00,0,,125
2013-3-8,54,42,31,45,36,28,100,81,61,30.19,30.07,29.91,10,10,7,20,8,26,0.13,3,Rain-Thunderstorm,124
2013-3-9,53,44,35,54,45,36,100,100,100,29.91,29.70,29.54,10,8,2,17,8,24,0.26,8,Rain-Thunderstorm,127
2013-3-10,35,29,23,36,28,21,100,95,89,29.95,29.85,29.69,10,3,0,23,14,32,0.09,8,Rain-Snow,335
2013-3-11,31,26,20,21,19,15,92,78,52,30.01,29.92,29.88,10,9,3,16,11,23,0.00,4,Snow,308
2013-3-12,34,26,18,24,21,18,99,78,65,30.33,30.17,30.01,10,9,4,25,7,33,0.00,4,,311
2013-3-13,35,26,18,24,19,16,92,72,53,30.45,30.36,30.24,10,10,10,9,5,,0.00,2,,186
2013-3-14,56,44,31,44,34,23,100,74,60,30.23,30.11,30.06,10,10,10,10,6,16,0.00,1,,266
2013-3-15,60,46,32,48,40,32,100,86,61,30.06,29.83,29.72,10,8,2,10,3,16,0.00,0,,341
2013-3-16,40,34,29,40,31,28,100,93,80,30.18,30.06,29.86,10,9,4,17,9,24,0.00,8,,2
2013-3-17,44,34,24,44,31,23,100,89,71,30.15,29.95,29.74,10,9,3,17,8,20,0.00,3,Rain,110
2013-3-18,36,32,28,33,27,24,100,76,60,30.05,29.88,29.73,10,8,2,30,10,43,0.05,3,Rain,296
2013-3-19,51,36,22,41,29,22,100,86,47,30.34,30.16,30.05,10,10,10,17,4,29,0.00,0,,318
2013-3-20,34,25,16,21,18,13,98,75,58,30.41,30.30,30.11,10,10,10,16,11,24,0.00,0,,328
2013-3-21,33,27,21,27,22,20,96,80,66,30.10,30.01,29.92,10,10,10,10,4,,0.00,6,,102
2013-3-22,34,30,27,29,27,25,96,84,73,30.03,30.00,29.97,10,10,7,7,3,,0.00,8,Snow,98
2013-3-23,37,33,29,34,31,28,100,94,76,30.11,30.06,30.02,10,8,1,10,3,17,0.03,8,Snow,34
2013-3-24,29,28,26,30,27,25,100,98,88,30.08,30.06,30.03,10,7,2,20,11,30,0.00,8,Snow,327
2013-3-25,31,28,25,30,27,25,100,99,86,30.35,30.21,30.08,10,7,2,18,12,26,0.00,7,Snow,321
2013-3-26,40,28,18,32,26,18,100,91,71,30.38,30.32,30.23,10,10,10,9,4,16,0.00,0,,283
2013-3-27,52,38,26,39,33,26,100,84,58,30.28,30.23,30.18,10,10,10,14,6,20,0.00,1,,129
2013-3-28,57,43,29,43,37,30,100,75,48,30.26,30.21,30.14,10,9,4,6,1,,0.00,1,Snow,109
2013-3-29,68,49,30,59,38,30,100,69,31,30.23,30.14,30.04,10,10,4,15,4,22,0.00,1,Thunderstorm,141
2013-3-30,66,56,47,56,48,38,100,77,48,30.08,29.95,29.90,10,10,4,21,7,25,0.30,4,Rain-Thunderstorm,322
2013-3-31,56,44,32,47,37,29,100,72,37,30.15,29.99,29.95,10,10,2,17,8,29,0.00,2,Rain-Snow,331